createdAt,value
2023-03-30T00:01:17.454Z,11.02
2023-03-30T00:03:45.936Z,11.00
2023-03-30T00:06:14.744Z,11.02
2023-03-30T00:08:41.279Z,11.01
2023-03-30T00:11:13.190Z,11.00
2023-03-30T00:13:40.209Z,11.00
2023-03-30T00:16:09.104Z,11.01
2023-03-30T00:18:36.689Z,11.00
2023-03-30T00:21:03.804Z,10.99
2023-03-30T00:23:30.880Z,10.97
2023-03-30T00:25:57.317Z,10.95
2023-03-30T00:28:26.084Z,10.92
2023-03-30T00:30:53.686Z,10.91
2023-03-30T00:33:27.590Z,10.91
2023-03-30T00:36:00.328Z,10.89
2023-03-30T00:38:27.205Z,10.87
2023-03-30T00:40:55.957Z,10.85
2023-03-30T00:43:22.999Z,10.86
2023-03-30T00:45:49.869Z,10.86
2023-03-30T00:48:19.423Z,10.84
2023-03-30T00:50:53.299Z,10.83
2023-03-30T00:53:28.731Z,10.84
2023-03-30T00:55:56.099Z,10.83
2023-03-30T00:58:23.020Z,10.83
2023-03-30T01:00:49.572Z,10.82
2023-03-30T01:03:19.424Z,10.82
2023-03-30T01:05:46.280Z,10.82
2023-03-30T01:08:16.568Z,10.79
2023-03-30T01:10:44.664Z,10.76
2023-03-30T01:13:12.782Z,10.77
2023-03-30T01:15:48.639Z,10.77
2023-03-30T01:18:24.113Z,10.75
2023-03-30T01:21:04.239Z,10.74
2023-03-30T01:23:49.601Z,10.76
2023-03-30T01:26:36.448Z,10.71
2023-03-30T01:29:10.202Z,10.70
2023-03-30T01:31:54.716Z,10.68
2023-03-30T01:34:33.690Z,10.67
2023-03-30T01:37:28.812Z,10.63
2023-03-30T01:40:17.298Z,10.61
2023-03-30T01:42:57.491Z,10.61
2023-03-30T01:45:33.529Z,10.62
2023-03-30T01:48:13.831Z,10.56
2023-03-30T01:50:42.987Z,10.56
2023-03-30T01:53:23.455Z,10.54
2023-03-30T01:55:55.802Z,10.51
2023-03-30T01:58:44.218Z,10.51
2023-03-30T02:01:13.603Z,10.50
2023-03-30T02:03:42.053Z,10.49
2023-03-30T02:06:24.443Z,10.47
2023-03-30T02:08:52.450Z,10.47
2023-03-30T02:11:18.869Z,10.43
2023-03-30T02:13:47.325Z,10.42
2023-03-30T02:16:16.755Z,10.41
2023-03-30T02:18:43.473Z,10.40
2023-03-30T02:21:09.958Z,10.40
2023-03-30T02:23:39.964Z,10.38
2023-03-30T02:26:08.025Z,10.36
2023-03-30T02:28:35.169Z,10.34
2023-03-30T02:31:01.926Z,10.33
2023-03-30T02:33:36.461Z,10.31
2023-03-30T02:36:10.271Z,10.31
2023-03-30T02:38:52.740Z,10.28
2023-03-30T02:41:33.201Z,10.24
2023-03-30T02:44:14.743Z,10.22
2023-03-30T02:46:49.901Z,10.19
2023-03-30T02:49:47.288Z,10.15
2023-03-30T02:52:36.864Z,10.10
2023-03-30T02:55:22.196Z,10.06
2023-03-30T02:57:55.798Z,10.03
2023-03-30T03:00:28.201Z,10.01
2023-03-30T03:02:58.384Z,9.98
2023-03-30T03:05:26.333Z,9.94
2023-03-30T03:07:53.574Z,9.90
2023-03-30T03:10:20.042Z,9.89
2023-03-30T03:12:46.838Z,9.86
2023-03-30T03:15:13.830Z,9.82
2023-03-30T03:17:40.314Z,9.79
2023-03-30T03:20:10.479Z,9.79
2023-03-30T03:22:37.249Z,9.78
2023-03-30T03:25:05.730Z,9.76
2023-03-30T03:27:32.145Z,9.75
2023-03-30T03:29:58.856Z,9.70
2023-03-30T03:32:25.328Z,9.71
2023-03-30T03:34:52.045Z,9.69
2023-03-30T03:37:18.517Z,9.68
2023-03-30T03:39:44.952Z,9.67
2023-03-30T03:42:11.492Z,9.67
2023-03-30T03:44:38.633Z,9.65
2023-03-30T03:47:05.070Z,9.65
2023-03-30T03:49:31.656Z,9.65
2023-03-30T03:51:58.141Z,9.66
2023-03-30T03:54:24.566Z,9.68
2023-03-30T03:56:51.959Z,9.67
2023-03-30T03:59:19.513Z,9.68
2023-03-30T04:01:46.050Z,9.70
2023-03-30T04:04:12.520Z,9.72
2023-03-30T04:06:38.962Z,9.78
2023-03-30T04:09:05.404Z,9.82
2023-03-30T04:11:31.832Z,9.85
2023-03-30T04:13:58.240Z,9.88
2023-03-30T04:16:24.790Z,9.87
2023-03-30T04:18:51.261Z,9.90
2023-03-30T04:21:20.082Z,9.88
2023-03-30T04:23:49.121Z,9.90
2023-03-30T04:26:15.963Z,9.93
2023-03-30T04:28:42.400Z,9.93
2023-03-30T04:31:12.935Z,9.96
2023-03-30T04:33:51.964Z,9.97
2023-03-30T04:36:20.077Z,9.96
2023-03-30T04:38:58.334Z,9.98
2023-03-30T04:41:29.924Z,9.97
2023-03-30T04:43:56.312Z,9.98
2023-03-30T04:46:22.796Z,9.98
2023-03-30T04:48:49.278Z,9.98
2023-03-30T04:51:16.098Z,9.97
2023-03-30T04:53:42.785Z,9.97
2023-03-30T04:56:09.221Z,9.98
2023-03-30T04:58:35.641Z,9.99
2023-03-30T05:01:03.763Z,9.98
2023-03-30T05:03:31.261Z,10.00
2023-03-30T05:05:57.832Z,10.00
2023-03-30T05:08:24.303Z,10.04
2023-03-30T05:10:50.723Z,10.08
2023-03-30T05:13:17.501Z,10.13
2023-03-30T05:15:43.920Z,10.15
2023-03-30T05:18:10.371Z,10.18
2023-03-30T05:20:36.842Z,10.23
2023-03-30T05:23:03.265Z,10.26
2023-03-30T05:25:31.230Z,10.28
2023-03-30T05:27:58.091Z,10.31
2023-03-30T05:30:24.511Z,10.34
2023-03-30T05:32:52.109Z,10.36
2023-03-30T05:35:18.622Z,10.43
2023-03-30T05:37:45.151Z,10.49
2023-03-30T05:40:11.716Z,10.50
2023-03-30T05:42:38.163Z,10.55
2023-03-30T05:45:05.544Z,10.58
2023-03-30T05:47:32.007Z,10.62
2023-03-30T05:49:58.429Z,10.65
2023-03-30T05:52:24.869Z,10.69
2023-03-30T05:54:51.370Z,10.72
2023-03-30T05:57:17.906Z,10.77
2023-03-30T05:59:44.533Z,10.82
2023-03-30T06:02:12.865Z,10.84
2023-03-30T06:04:40.339Z,10.87
2023-03-30T06:07:07.915Z,10.93
2023-03-30T06:09:34.556Z,10.94
2023-03-30T06:12:01.141Z,10.98
2023-03-30T06:14:27.625Z,11.04
2023-03-30T06:16:54.079Z,11.10
2023-03-30T06:19:20.642Z,11.15
2023-03-30T06:21:47.709Z,11.19
2023-03-30T06:24:14.157Z,11.22
2023-03-30T06:26:41.197Z,11.29
2023-03-30T06:29:07.632Z,11.35
2023-03-30T06:31:34.249Z,11.38
2023-03-30T06:34:01.011Z,11.43
2023-03-30T06:36:45.188Z,11.50
2023-03-30T06:39:13.031Z,11.55
2023-03-30T06:41:39.458Z,11.58
2023-03-30T06:44:06.630Z,11.66
2023-03-30T06:46:33.529Z,11.76
2023-03-30T06:48:59.949Z,11.81
2023-03-30T06:51:26.522Z,11.85
2023-03-30T06:53:52.984Z,11.91
2023-03-30T06:56:19.382Z,11.95
2023-03-30T06:58:46.830Z,12.01
2023-03-30T07:01:15.485Z,12.05
2023-03-30T07:03:41.969Z,12.11
2023-03-30T07:06:09.663Z,12.19
2023-03-30T07:08:37.051Z,12.20
2023-03-30T07:11:05.203Z,12.25
2023-03-30T07:13:34.207Z,12.32
2023-03-30T07:16:00.963Z,12.38
2023-03-30T07:18:27.401Z,12.42
2023-03-30T07:20:53.860Z,12.55
2023-03-30T07:23:21.623Z,12.61
2023-03-30T07:25:48.113Z,12.81
2023-03-30T07:28:14.585Z,12.92
2023-03-30T07:30:41.350Z,13.04
2023-03-30T07:33:07.967Z,13.11
2023-03-30T07:35:34.472Z,13.20
2023-03-30T07:38:03.747Z,13.23
2023-03-30T07:40:30.443Z,13.35
2023-03-30T07:42:56.959Z,13.43
2023-03-30T07:45:23.376Z,13.47
2023-03-30T07:47:49.849Z,13.52
2023-03-30T07:50:16.474Z,13.54
2023-03-30T07:52:42.978Z,13.60
2023-03-30T07:55:09.508Z,13.62
2023-03-30T07:57:35.988Z,13.68
2023-03-30T08:00:05.258Z,13.72
2023-03-30T08:02:31.744Z,13.70
2023-03-30T08:04:58.328Z,13.70
2023-03-30T08:07:27.554Z,13.76
2023-03-30T08:09:54.011Z,13.82
2023-03-30T08:12:20.441Z,13.88
2023-03-30T08:14:46.856Z,13.93
2023-03-30T08:17:13.494Z,14.04
2023-03-30T08:19:39.915Z,14.09
2023-03-30T08:22:06.617Z,14.20
2023-03-30T08:24:33.024Z,14.29
2023-03-30T08:26:59.482Z,14.34
2023-03-30T08:29:25.902Z,14.39
2023-03-30T08:31:52.701Z,14.45
2023-03-30T08:34:20.120Z,14.49
2023-03-30T08:36:46.709Z,14.55
2023-03-30T08:39:13.144Z,14.53
2023-03-30T08:42:02.115Z,14.63
2023-03-30T08:44:34.450Z,14.68
2023-03-30T08:47:04.249Z,14.75
2023-03-30T08:49:33.860Z,14.75
2023-03-30T08:52:03.045Z,14.85
2023-03-30T08:54:30.567Z,14.88
2023-03-30T08:57:06.223Z,14.91
2023-03-30T08:59:51.572Z,15.02
2023-03-30T09:02:23.416Z,15.14
2023-03-30T09:05:04.719Z,15.28
2023-03-30T09:07:38.084Z,15.41
2023-03-30T09:10:04.757Z,15.53
2023-03-30T09:12:46.753Z,15.65
2023-03-30T09:15:32.246Z,15.78
2023-03-30T09:18:07.567Z,15.75
2023-03-30T09:20:36.211Z,15.80
2023-03-30T09:23:03.692Z,15.81
2023-03-30T09:25:49.192Z,15.79
2023-03-30T09:28:21.152Z,15.78
2023-03-30T09:31:20.501Z,15.79
2023-03-30T09:34:08.941Z,15.91
2023-03-30T09:36:39.911Z,16.01
2023-03-30T09:39:19.148Z,16.20
2023-03-30T09:41:51.803Z,16.32
2023-03-30T09:44:27.322Z,16.42
2023-03-30T09:46:58.499Z,16.49
2023-03-30T09:49:28.743Z,16.56
2023-03-30T09:52:04.485Z,16.64
2023-03-30T09:54:38.724Z,16.71
2023-03-30T09:57:05.621Z,16.87
2023-03-30T09:59:37.144Z,17.01
2023-03-30T10:02:12.626Z,17.14
2023-03-30T10:04:52.175Z,17.21
2023-03-30T10:07:31.095Z,17.25
2023-03-30T10:09:59.167Z,17.31
2023-03-30T10:12:26.414Z,17.34
2023-03-30T10:14:58.358Z,17.40
2023-03-30T10:17:26.008Z,17.48
2023-03-30T10:20:14.969Z,17.48
2023-03-30T10:22:56.453Z,17.61
2023-03-30T10:25:31.476Z,17.68
2023-03-30T10:28:02.679Z,17.77
2023-03-30T10:30:29.618Z,17.84
2023-03-30T10:32:59.032Z,17.85
2023-03-30T10:35:27.702Z,17.78
2023-03-30T10:37:55.810Z,17.74
2023-03-30T10:40:27.905Z,17.70
2023-03-30T10:42:57.538Z,17.71
2023-03-30T10:45:48.377Z,17.75
2023-03-30T10:48:34.796Z,17.76
2023-03-30T10:51:27.563Z,17.87
2023-03-30T10:54:23.581Z,18.01
2023-03-30T10:57:22.472Z,18.17
2023-03-30T10:59:57.958Z,18.37
2023-03-30T11:02:39.626Z,18.53
2023-03-30T11:05:12.421Z,18.61
2023-03-30T11:07:44.083Z,18.73
2023-03-30T11:10:22.240Z,18.72
2023-03-30T11:13:07.073Z,18.77
2023-03-30T11:15:38.740Z,18.77
2023-03-30T11:18:21.912Z,18.82
2023-03-30T11:20:56.992Z,18.89
2023-03-30T11:23:45.773Z,19.00
2023-03-30T11:26:15.983Z,19.17
2023-03-30T11:29:03.920Z,19.26
2023-03-30T11:31:44.936Z,19.18
2023-03-30T11:34:21.468Z,19.13
2023-03-30T11:37:13.241Z,19.07
2023-03-30T11:39:46.229Z,19.00
2023-03-30T11:42:17.322Z,18.96
2023-03-30T11:44:44.051Z,18.97
2023-03-30T11:47:15.341Z,18.92
2023-03-30T11:50:01.933Z,18.81
2023-03-30T11:52:33.275Z,18.76
2023-03-30T11:55:23.865Z,18.79
2023-03-30T11:58:06.840Z,18.68
2023-03-30T12:00:51.984Z,18.62
2023-03-30T12:03:39.506Z,18.72
2023-03-30T12:06:31.180Z,18.87
2023-03-30T12:09:03.428Z,18.98
2023-03-30T12:11:39.640Z,19.01
2023-03-30T12:14:27.277Z,18.99
2023-03-30T12:16:59.115Z,18.92
2023-03-30T12:19:55.481Z,18.78
2023-03-30T12:22:34.942Z,18.77
2023-03-30T12:25:15.151Z,18.74
2023-03-30T12:28:01.146Z,18.64
2023-03-30T12:30:43.850Z,18.60
2023-03-30T12:33:26.247Z,18.41
2023-03-30T12:35:56.060Z,18.16
2023-03-30T12:38:46.203Z,17.81
2023-03-30T12:41:15.940Z,17.57
2023-03-30T12:43:58.669Z,17.35
2023-03-30T12:46:41.860Z,17.12
2023-03-30T12:49:16.407Z,16.85
2023-03-30T12:52:05.111Z,16.68
2023-03-30T12:54:49.729Z,16.37
2023-03-30T12:57:36.693Z,16.17
2023-03-30T13:00:23.493Z,15.92
2023-03-30T13:03:00.797Z,15.76
2023-03-30T13:05:32.926Z,15.57
2023-03-30T13:08:05.484Z,15.43
2023-03-30T13:10:31.885Z,15.30
2023-03-30T13:13:00.034Z,15.14
2023-03-30T13:15:33.892Z,15.08
2023-03-30T13:18:09.546Z,15.02
2023-03-30T13:20:57.505Z,14.92
2023-03-30T13:23:27.384Z,14.89
2023-03-30T13:26:03.107Z,14.89
2023-03-30T13:28:54.773Z,14.98
2023-03-30T13:31:40.313Z,15.01
2023-03-30T13:34:16.565Z,15.09
2023-03-30T13:36:52.785Z,15.21
2023-03-30T13:39:26.308Z,15.31
2023-03-30T13:42:18.937Z,15.38
2023-03-30T13:44:59.022Z,15.40
2023-03-30T13:47:57.714Z,15.48
2023-03-30T13:50:27.976Z,15.47
2023-03-30T13:52:55.808Z,15.48
2023-03-30T13:55:30.135Z,15.58
2023-03-30T13:58:29.088Z,15.63
2023-03-30T14:01:01.501Z,15.63
2023-03-30T14:04:00.781Z,15.69
2023-03-30T14:06:30.156Z,15.77
2023-03-30T14:09:05.489Z,15.84
2023-03-30T14:11:50.136Z,15.83
2023-03-30T14:14:31.156Z,15.80
2023-03-30T14:16:59.907Z,15.83
2023-03-30T14:19:34.094Z,15.82
2023-03-30T14:22:04.733Z,15.91
2023-03-30T14:24:33.352Z,15.96
2023-03-30T14:27:06.401Z,16.00
2023-03-30T14:29:33.236Z,15.93
2023-03-30T14:32:08.152Z,15.91
2023-03-30T14:34:35.995Z,15.92
2023-03-30T14:37:07.801Z,15.97
2023-03-30T14:39:40.488Z,16.09
2023-03-30T14:42:17.512Z,16.21
2023-03-30T14:44:45.604Z,16.19
2023-03-30T14:47:12.186Z,16.21
2023-03-30T14:49:39.072Z,16.27
2023-03-30T14:52:24.304Z,16.25
2023-03-30T14:55:05.052Z,16.25
2023-03-30T14:57:37.799Z,16.27
2023-03-30T15:00:21.023Z,16.23
2023-03-30T15:02:53.965Z,16.32
2023-03-30T15:05:23.074Z,16.41
2023-03-30T15:07:50.412Z,16.45
2023-03-30T15:10:31.692Z,16.50
2023-03-30T15:12:58.185Z,16.57
2023-03-30T15:15:28.355Z,16.56
2023-03-30T15:17:55.440Z,16.65
2023-03-30T15:20:25.672Z,16.74
2023-03-30T15:22:52.329Z,16.76
2023-03-30T15:25:21.395Z,16.90
2023-03-30T15:27:54.855Z,16.96
2023-03-30T15:30:35.041Z,17.01
2023-03-30T15:33:02.417Z,16.99
2023-03-30T15:35:34.004Z,17.08
2023-03-30T15:38:10.857Z,17.02
2023-03-30T15:40:42.772Z,16.82
2023-03-30T15:43:19.509Z,16.66
2023-03-30T15:45:49.031Z,16.48
2023-03-30T15:48:18.824Z,16.36
2023-03-30T15:50:49.784Z,16.25
2023-03-30T15:53:21.161Z,16.12
2023-03-30T15:55:51.610Z,16.06
2023-03-30T15:58:23.178Z,15.94
2023-03-30T16:00:49.742Z,15.86
2023-03-30T16:03:31.500Z,15.82
2023-03-30T16:05:58.224Z,15.76
2023-03-30T16:08:24.642Z,15.87
2023-03-30T16:10:51.185Z,15.97
2023-03-30T16:13:17.679Z,16.09
2023-03-30T16:15:44.280Z,16.18
2023-03-30T16:18:12.247Z,16.25
2023-03-30T16:20:38.713Z,16.28
2023-03-30T16:23:05.193Z,16.29
2023-03-30T16:25:44.224Z,16.17
2023-03-30T16:28:17.022Z,15.99
2023-03-30T16:30:45.876Z,15.90
2023-03-30T16:33:12.366Z,15.75
2023-03-30T16:35:38.845Z,15.64
2023-03-30T16:38:05.500Z,15.50
2023-03-30T16:40:37.376Z,15.38
2023-03-30T16:43:04.343Z,15.29
2023-03-30T16:45:32.112Z,15.23
2023-03-30T16:47:58.658Z,15.17
2023-03-30T16:50:38.151Z,15.02
2023-03-30T16:53:05.440Z,14.92
2023-03-30T16:55:32.204Z,14.86
2023-03-30T16:57:58.727Z,14.78
2023-03-30T17:00:27.867Z,14.73
2023-03-30T17:02:54.438Z,14.92
2023-03-30T17:05:20.933Z,15.90
2023-03-30T17:07:47.703Z,16.36
2023-03-30T17:10:15.556Z,15.93
2023-03-30T17:12:42.995Z,15.43
2023-03-30T17:15:10.119Z,15.06
2023-03-30T17:17:37.310Z,14.86
2023-03-30T17:20:34.627Z,14.69
2023-03-30T17:23:01.071Z,14.56
2023-03-30T17:25:27.527Z,14.41
2023-03-30T17:27:55.466Z,14.30
2023-03-30T17:30:26.678Z,14.19
2023-03-30T17:32:55.265Z,14.05
2023-03-30T17:35:22.901Z,13.93
2023-03-30T17:37:49.478Z,13.85
2023-03-30T17:40:19.211Z,13.69
2023-03-30T17:42:46.237Z,13.59
2023-03-30T17:45:14.979Z,13.47
2023-03-30T17:47:42.065Z,13.41
2023-03-30T17:50:25.624Z,13.32
2023-03-30T17:52:52.751Z,13.25
2023-03-30T17:55:20.261Z,13.16
2023-03-30T17:57:46.790Z,13.14
2023-03-30T18:00:16.896Z,13.05
2023-03-30T18:02:43.397Z,13.04
2023-03-30T18:05:10.246Z,12.99
2023-03-30T18:07:36.798Z,12.93
2023-03-30T18:10:16.040Z,12.86
2023-03-30T18:12:42.502Z,12.85
2023-03-30T18:15:09.143Z,12.85
2023-03-30T18:17:35.636Z,12.78
2023-03-30T18:20:15.168Z,12.69
2023-03-30T18:22:41.593Z,12.67
2023-03-30T18:25:09.708Z,12.65
2023-03-30T18:27:39.465Z,12.56
2023-03-30T18:30:23.730Z,12.55
2023-03-30T18:32:50.920Z,12.49
2023-03-30T18:35:18.861Z,12.46
2023-03-30T18:37:45.699Z,12.46
2023-03-30T18:40:18.840Z,12.41
2023-03-30T18:42:45.612Z,12.36
2023-03-30T18:45:23.640Z,12.31
2023-03-30T18:47:50.346Z,12.25
2023-03-30T18:50:20.891Z,12.23
2023-03-30T18:52:47.326Z,12.20
2023-03-30T18:55:15.253Z,12.15
2023-03-30T18:57:42.138Z,12.09
2023-03-30T19:00:18.989Z,12.07
2023-03-30T19:02:45.861Z,12.06
2023-03-30T19:05:12.348Z,12.00
2023-03-30T19:07:39.115Z,11.92
2023-03-30T19:10:06.419Z,11.90
2023-03-30T19:12:33.829Z,11.90
2023-03-30T19:15:00.330Z,11.89
2023-03-30T19:17:27.332Z,11.88
2023-03-30T19:19:53.771Z,11.85
2023-03-30T19:22:20.246Z,11.86
2023-03-30T19:24:46.705Z,11.82
2023-03-30T19:27:13.182Z,11.85
2023-03-30T19:29:39.687Z,11.86
2023-03-30T19:32:06.171Z,11.85
2023-03-30T19:34:32.650Z,11.84
2023-03-30T19:36:59.105Z,11.86
2023-03-30T19:39:25.516Z,11.83
2023-03-30T19:41:52.060Z,11.82
2023-03-30T19:44:18.457Z,11.81
2023-03-30T19:46:44.960Z,11.80
2023-03-30T19:49:11.426Z,11.81
2023-03-30T19:51:37.825Z,11.82
2023-03-30T19:54:04.319Z,11.83
2023-03-30T19:56:30.790Z,11.85
2023-03-30T19:58:58.704Z,11.81
2023-03-30T20:01:25.164Z,11.80
2023-03-30T20:03:51.742Z,11.75
2023-03-30T20:06:18.191Z,11.75
2023-03-30T20:08:45.033Z,11.74
2023-03-30T20:11:12.470Z,11.68
2023-03-30T20:13:45.272Z,11.69
2023-03-30T20:16:20.216Z,11.68
2023-03-30T20:18:50.592Z,11.69
2023-03-30T20:21:21.756Z,11.68
2023-03-30T20:23:48.339Z,11.70
2023-03-30T20:26:16.727Z,11.70
2023-03-30T20:28:43.740Z,11.69
2023-03-30T20:31:11.831Z,11.67
2023-03-30T20:33:38.756Z,11.70
2023-03-30T20:36:08.967Z,11.72
2023-03-30T20:38:39.600Z,11.71
2023-03-30T20:41:07.171Z,11.71
2023-03-30T20:43:38.467Z,11.72
2023-03-30T20:46:14.021Z,11.74
2023-03-30T20:48:41.283Z,11.76
2023-03-30T20:51:10.999Z,11.73
2023-03-30T20:53:37.754Z,11.70
2023-03-30T20:56:05.824Z,11.64
2023-03-30T20:58:32.371Z,11.59
2023-03-30T21:00:58.927Z,11.55
2023-03-30T21:03:29.197Z,11.51
2023-03-30T21:06:00.804Z,11.47
2023-03-30T21:08:27.318Z,11.42
2023-03-30T21:10:53.766Z,11.38
2023-03-30T21:13:20.318Z,11.37
2023-03-30T21:15:46.763Z,11.32
2023-03-30T21:18:13.404Z,11.31
2023-03-30T21:20:39.928Z,11.30
2023-03-30T21:23:06.852Z,11.33
2023-03-30T21:25:33.327Z,11.30
2023-03-30T21:27:59.802Z,11.30
2023-03-30T21:30:28.356Z,11.34
2023-03-30T21:32:54.867Z,11.36
2023-03-30T21:35:21.367Z,11.38
2023-03-30T21:37:47.873Z,11.42
2023-03-30T21:40:14.354Z,11.46
2023-03-30T21:42:40.833Z,11.50
2023-03-30T21:45:07.969Z,11.53
2023-03-30T21:47:34.566Z,11.59
2023-03-30T21:50:01.035Z,11.61
2023-03-30T21:52:28.862Z,11.67
2023-03-30T21:54:55.320Z,11.63
2023-03-30T21:57:22.005Z,11.63
2023-03-30T21:59:48.634Z,11.64
2023-03-30T22:02:15.228Z,11.64
2023-03-30T22:04:44.820Z,11.62
2023-03-30T22:07:11.380Z,11.57
2023-03-30T22:09:37.867Z,11.52
2023-03-30T22:12:04.427Z,11.52
2023-03-30T22:14:31.018Z,11.51
2023-03-30T22:16:57.935Z,11.49
2023-03-30T22:19:24.716Z,11.49
2023-03-30T22:21:51.952Z,11.50
2023-03-30T22:24:19.243Z,11.50
2023-03-30T22:26:46.262Z,11.52
2023-03-30T22:29:13.017Z,11.53
2023-03-30T22:31:42.583Z,11.54
2023-03-30T22:34:09.073Z,11.56
2023-03-30T22:36:35.694Z,11.57
2023-03-30T22:39:03.735Z,11.58
2023-03-30T22:41:30.636Z,11.58
2023-03-30T22:43:57.957Z,11.61
2023-03-30T22:46:25.549Z,11.60
2023-03-30T22:48:52.677Z,11.57
2023-03-30T22:51:28.306Z,11.56
2023-03-30T22:53:59.360Z,11.55
2023-03-30T22:56:27.405Z,11.50
2023-03-30T22:58:54.040Z,11.47
2023-03-30T23:01:21.587Z,11.46
2023-03-30T23:03:48.193Z,11.40
2023-03-30T23:06:14.854Z,11.38
2023-03-30T23:08:42.548Z,11.35
2023-03-30T23:11:09.023Z,11.35
2023-03-30T23:13:37.792Z,11.35
2023-03-30T23:16:06.548Z,11.33
2023-03-30T23:18:34.232Z,11.28
2023-03-30T23:21:06.082Z,11.32
2023-03-30T23:23:34.518Z,11.31
2023-03-30T23:26:03.024Z,11.33
2023-03-30T23:28:31.484Z,11.36
2023-03-30T23:30:58.161Z,11.35
2023-03-30T23:33:25.078Z,11.39
2023-03-30T23:35:51.571Z,11.42
2023-03-30T23:38:18.161Z,11.43
2023-03-30T23:40:44.606Z,11.45
2023-03-30T23:43:11.090Z,11.45
2023-03-30T23:45:37.577Z,11.47
2023-03-30T23:48:04.212Z,11.46
2023-03-30T23:50:33.047Z,11.47
2023-03-30T23:52:59.602Z,11.45
2023-03-30T23:55:26.149Z,11.45
2023-03-30T23:57:52.630Z,11.43
